Time;durP1;ratioP1;P1;durP2;ratioP2;P2;SDS_P1;SDS_P2;PMS_P1;PMS_P2;Temp;Humidity;BMP_temperature;BMP_pressure;BME280_temperature;BME280_humidity;BME280_pressure;Samples;Min_cycle;Max_cycle;Signal;HPM_P1;HPM_P2
2022/01/17 00:01:53;;;;;;;0.10;0.10;;;;;;;9.80;60.47;103205.41;5053868;28;20360;-87
2022/01/17 00:04:20;;;;;;;0.10;0.10;;;;;;;9.86;60.78;103208.19;5054687;28;20079;-87
2022/01/17 00:06:48;;;;;;;0.10;0.10;;;;;;;9.87;60.55;103202.06;5054502;28;20104;-86
2022/01/17 00:09:22;;;;;;;0.10;0.10;;;;;;;9.87;60.80;103202.06;5053118;28;20048;-86
2022/01/17 00:11:50;;;;;;;0.10;0.10;;;;;;;9.88;61.17;103190.56;5050382;28;20025;-87
2022/01/17 00:14:22;;;;;;;0.10;0.10;;;;;;;9.82;59.14;103190.44;5054320;28;20483;-87
2022/01/17 00:17:06;;;;;;;0.20;0.20;;;;;;;9.82;59.67;103198.38;5053852;28;20388;-87
2022/01/17 00:19:52;;;;;;;0.10;0.10;;;;;;;9.85;59.83;103214.34;5052993;28;20070;-87
2022/01/17 00:22:20;;;;;;;0.10;0.10;;;;;;;9.83;59.64;103224.00;5055187;28;20041;-87
2022/01/17 00:24:47;;;;;;;0.10;0.10;;;;;;;9.86;59.58;103222.31;5055615;28;20417;-87
2022/01/17 00:27:13;;;;;;;0.15;0.15;;;;;;;9.85;60.04;103222.28;5051785;28;20036;-87
2022/01/17 00:29:40;;;;;;;0.10;0.10;;;;;;;9.79;59.49;103230.09;5050742;28;20048;-87
2022/01/17 00:32:07;;;;;;;0.10;0.10;;;;;;;9.74;59.99;103237.06;5052283;28;20040;-87
2022/01/17 00:34:33;;;;;;;0.10;0.10;;;;;;;9.65;60.18;103238.63;5051270;28;20039;-87
2022/01/17 00:36:59;;;;;;;0.10;0.10;;;;;;;9.55;59.36;103236.66;5050198;28;20032;-86
2022/01/17 00:39:26;;;;;;;0.50;0.50;;;;;;;9.48;59.70;103240.00;5053915;28;20330;-87
2022/01/17 00:41:52;;;;;;;4.25;2.20;;;;;;;9.41;58.76;103227.47;5053091;28;20112;-87
2022/01/17 00:44:23;;;;;;;0.13;0.13;;;;;;;9.26;58.80;103215.69;5051298;28;20407;-86
2022/01/17 00:46:52;;;;;;;0.10;0.10;;;;;;;9.22;59.68;103212.09;5051752;28;20021;-87
2022/01/17 00:49:19;;;;;;;0.10;0.10;;;;;;;9.27;59.86;103209.56;5053686;28;20025;-87
2022/01/17 00:51:46;;;;;;;0.10;0.10;;;;;;;9.20;59.98;103224.38;5051660;28;20068;-87
2022/01/17 00:54:12;;;;;;;0.10;0.10;;;;;;;9.11;58.70;103232.09;5052980;28;20047;-87
2022/01/17 00:56:39;;;;;;;0.10;0.10;;;;;;;9.13;58.97;103232.13;5052540;28;20037;-85
2022/01/17 00:59:05;;;;;;;0.10;0.10;;;;;;;9.07;59.29;103232.84;5052191;28;20411;-87
2022/01/17 01:01:32;;;;;;;0.15;0.15;;;;;;;9.00;59.27;103223.00;5052873;28;20048;-86
2022/01/17 01:03:58;;;;;;;0.15;0.15;;;;;;;8.93;59.63;103229.88;5052911;28;20041;-86
2022/01/17 01:06:24;;;;;;;0.10;0.10;;;;;;;8.93;59.54;103219.28;5051730;28;20044;-87
2022/01/17 01:08:50;;;;;;;0.10;0.10;;;;;;;8.82;59.57;103211.13;5049759;28;20040;-87
2022/01/17 01:11:17;;;;;;;0.10;0.10;;;;;;;8.83;59.41;103212.00;5053150;28;20037;-87
2022/01/17 01:13:43;;;;;;;0.17;0.17;;;;;;;8.84;59.94;103214.66;5048918;28;20106;-86
2022/01/17 01:16:23;;;;;;;0.10;0.10;;;;;;;8.70;59.35;103216.97;5052585;28;20055;-87
2022/01/17 01:19:08;;;;;;;0.10;0.10;;;;;;;8.73;59.99;103222.34;5050451;28;20036;-85
2022/01/17 01:29:56;;;;;;;0.10;0.10;;;;;;;8.60;60.23;103233.44;5066212;28;20036;-85
2022/01/17 01:32:27;;;;;;;0.10;0.10;;;;;;;8.51;59.69;103242.03;5060376;28;20033;-86
2022/01/17 01:34:57;;;;;;;0.10;0.10;;;;;;;8.53;60.41;103249.97;5041870;28;20028;-87
2022/01/17 01:37:23;;;;;;;0.10;0.10;;;;;;;8.55;60.15;103253.56;5038586;28;20504;-87
2022/01/17 01:39:51;;;;;;;0.30;0.30;;;;;;;8.57;59.83;103249.19;5040029;28;20037;-87
2022/01/17 01:42:19;;;;;;;0.10;0.10;;;;;;;8.57;59.89;103251.84;5038486;28;20034;-86
2022/01/17 01:44:50;;;;;;;0.10;0.10;;;;;;;8.63;60.25;103246.72;5040578;28;20036;-86
2022/01/17 01:47:19;;;;;;;0.10;0.10;;;;;;;8.63;60.47;103246.72;5046709;28;20025;-87
2022/01/17 01:49:45;;;;;;;0.10;0.10;;;;;;;8.63;60.25;103249.38;5043320;28;20083;-86
2022/01/17 01:52:11;;;;;;;0.10;0.10;;;;;;;8.57;60.01;103259.78;5043785;28;20105;-85
2022/01/17 01:54:37;;;;;;;0.35;0.35;;;;;;;8.49;60.62;103262.22;5042551;28;20169;-86
2022/01/17 01:57:04;;;;;;;0.25;0.25;;;;;;;8.38;60.99;103253.94;5041795;28;20025;-85
2022/01/17 01:59:32;;;;;;;0.10;0.10;;;;;;;8.32;60.72;103261.69;5033903;28;20431;-86
2022/01/17 02:01:58;;;;;;;0.10;0.10;;;;;;;8.25;60.56;103249.19;5038067;28;20392;-85
2022/01/17 02:04:25;;;;;;;5.25;2.03;;;;;;;8.17;60.57;103248.06;5045436;28;20021;-85
2022/01/17 02:06:52;;;;;;;0.10;0.10;;;;;;;8.13;61.02;103259.41;5044807;28;20452;-86
2022/01/17 02:09:18;;;;;;;0.10;0.10;;;;;;;8.08;60.72;103246.94;5046628;28;20041;-85
2022/01/17 02:11:44;;;;;;;0.10;0.10;;;;;;;8.02;60.83;103252.03;5037848;28;20493;-85
2022/01/17 02:14:11;;;;;;;0.10;0.10;;;;;;;7.96;61.15;103241.28;5037414;28;20033;-85
2022/01/17 02:16:38;;;;;;;0.15;0.15;;;;;;;7.92;61.59;103242.06;5043687;28;20041;-86
2022/01/17 02:19:05;;;;;;;0.10;0.10;;;;;;;7.85;61.24;103234.81;5046709;28;20041;-85
2022/01/17 02:21:33;;;;;;;0.10;0.10;;;;;;;7.81;61.01;103241.72;5035187;28;20022;-85
2022/01/17 02:24:01;;;;;;;0.10;0.10;;;;;;;7.73;61.92;103230.94;5035424;28;20065;-85
2022/01/17 02:26:28;;;;;;;0.10;0.10;;;;;;;7.71;61.55;103223.84;5034630;28;20484;-85
2022/01/17 02:28:56;;;;;;;0.20;0.20;;;;;;;7.66;61.80;103236.88;5037815;28;20124;-85
2022/01/17 02:31:24;;;;;;;0.10;0.10;;;;;;;7.62;61.95;103250.84;5035979;28;20100;-86
2022/01/17 02:33:51;;;;;;;0.10;0.10;;;;;;;7.55;61.86;103249.78;5032214;28;20034;-85
2022/01/17 02:36:17;;;;;;;5.10;1.42;;;;;;;7.48;62.18;103253.06;5025572;28;20033;-85
2022/01/17 02:38:44;;;;;;;0.10;0.10;;;;;;;7.48;62.35;103242.50;5030999;28;20399;-85
2022/01/17 02:41:11;;;;;;;0.10;0.10;;;;;;;7.38;62.95;103243.94;5024515;28;20041;-85
2022/01/17 02:43:39;;;;;;;0.20;0.20;;;;;;;7.41;62.48;103257.25;5022283;28;20076;-86
2022/01/17 02:48:48;;;;;;;0.10;0.10;;;;;;;7.36;62.64;103255.31;5077721;27;20432;-86
2022/01/17 02:51:14;;;;;;;0.10;0.10;;;;;;;7.29;63.47;103255.09;5058228;28;20037;-86
2022/01/17 02:53:41;;;;;;;0.10;0.10;;;;;;;7.28;63.13;103257.69;5055321;28;20033;-86
2022/01/17 02:56:09;;;;;;;0.10;0.10;;;;;;;7.26;63.57;103267.28;5054926;28;20126;-85
2022/01/17 02:58:37;;;;;;;0.10;0.10;;;;;;;7.25;63.26;103265.50;5058966;28;20128;-86
2022/01/17 03:01:09;;;;;;;0.10;0.10;;;;;;;7.27;63.68;103269.09;5055833;28;20025;-86
2022/01/17 03:03:35;;;;;;;0.10;0.10;;;;;;;7.27;63.65;103262.06;5052912;28;20029;-86
2022/01/17 03:06:03;;;;;;;0.10;0.10;;;;;;;7.27;64.34;103253.25;5060091;28;20283;-86
2022/01/17 03:08:33;;;;;;;0.10;0.10;;;;;;;7.27;64.16;103253.25;5056053;28;20033;-86
2022/01/17 03:11:01;;;;;;;0.10;0.10;;;;;;;7.31;63.93;103243.72;5060388;28;20037;-85
2022/01/17 03:13:32;;;;;;;0.10;0.10;;;;;;;7.29;63.73;103251.59;5056489;28;20033;-86
2022/01/17 03:16:01;;;;;;;0.10;0.10;;;;;;;7.28;64.23;103250.66;5055225;28;20029;-86
2022/01/17 03:18:30;;;;;;;0.20;0.20;;;;;;;7.29;64.12;103262.13;5056879;28;20120;-85
2022/01/17 03:20:59;;;;;;;0.10;0.10;;;;;;;7.32;64.49;103251.66;5058020;28;20119;-86
2022/01/17 03:23:34;;;;;;;1.33;1.25;;;;;;;7.32;65.03;103256.94;5059178;22;21269;-83
2022/01/17 03:26:05;;;;;;;0.10;0.10;;;;;;;7.34;64.95;103252.63;5045176;28;20033;-83
2022/01/17 03:28:40;;;;;;;0.10;0.10;;;;;;;7.36;65.04;103250.91;5047473;28;20454;-84
2022/01/17 03:31:15;;;;;;;0.10;0.10;;;;;;;7.38;64.56;103243.06;5046064;28;20041;-85
2022/01/17 03:33:42;;;;;;;0.10;0.10;;;;;;;7.38;64.40;103246.59;5043649;28;20035;-84
2022/01/17 03:36:08;;;;;;;0.10;0.10;;;;;;;7.35;65.09;103248.22;5046434;28;20038;-83
2022/01/17 03:38:36;;;;;;;0.10;0.10;;;;;;;7.34;65.52;103243.78;5046177;28;20033;-85
2022/01/17 03:41:05;;;;;;;0.10;0.10;;;;;;;7.31;65.58;103239.31;5046780;28;20537;-84
2022/01/17 03:43:31;;;;;;;0.10;0.10;;;;;;;7.20;65.57;103235.44;5047092;28;20047;-83
2022/01/17 03:45:58;;;;;;;0.17;0.17;;;;;;;7.28;65.27;103244.50;5039842;28;20396;-85
2022/01/17 03:48:26;;;;;;;0.10;0.10;;;;;;;7.25;65.58;103247.03;5032968;28;20116;-85
2022/01/17 03:50:52;;;;;;;0.10;0.10;;;;;;;7.22;65.77;103242.56;5037853;28;20042;-84
2022/01/17 03:53:18;;;;;;;0.20;0.20;;;;;;;7.22;66.71;103237.28;5043510;28;20033;-85
2022/01/17 03:55:45;;;;;;;0.43;0.43;;;;;;;7.29;66.50;103241.91;5047416;28;20041;-86
2022/01/17 03:58:11;;;;;;;0.10;0.10;;;;;;;7.25;66.65;103237.41;5036278;28;20373;-84
2022/01/17 04:00:41;;;;;;;0.10;0.10;;;;;;;7.31;67.12;103228.78;5034109;28;20128;-85
2022/01/17 04:03:08;;;;;;;0.30;0.30;;;;;;;7.27;67.76;103232.16;5034302;28;20159;-84
2022/01/17 04:05:34;;;;;;;0.08;0.08;;;;;;;7.25;67.57;103239.13;5032216;28;20040;-84
2022/01/17 04:08:00;;;;;;;0.10;0.10;;;;;;;7.33;67.25;103236.72;5033291;28;20064;-84
2022/01/17 04:10:27;;;;;;;0.10;0.10;;;;;;;7.29;67.35;103236.63;5033416;28;20044;-84
2022/01/17 04:13:00;;;;;;;0.10;0.10;;;;;;;7.36;67.15;103247.38;5032619;28;20048;-85
2022/01/17 04:15:28;;;;;;;0.10;0.10;;;;;;;7.35;67.61;103246.50;5034966;28;20036;-83
2022/01/17 04:17:54;;;;;;;0.10;0.10;;;;;;;7.36;68.53;103256.19;5030952;28;20060;-85
2022/01/17 04:20:26;;;;;;;0.03;0.03;;;;;;;7.39;67.84;103264.22;5032918;28;20056;-83
2022/01/17 04:22:55;;;;;;;0.20;0.20;;;;;;;7.43;68.20;103266.09;5030279;28;20057;-85
2022/01/17 04:25:23;;;;;;;0.15;0.15;;;;;;;7.39;68.76;103272.13;5033808;28;20364;-85
2022/01/17 04:27:50;;;;;;;0.10;0.10;;;;;;;7.41;67.90;103274.81;5027944;28;21352;-85
2022/01/17 04:30:17;;;;;;;0.10;0.10;;;;;;;7.37;68.29;103275.56;5024168;28;20084;-84
2022/01/17 04:32:45;;;;;;;0.10;0.10;;;;;;;7.42;69.34;103279.22;5019562;28;20460;-85
2022/01/17 04:35:13;;;;;;;0.10;0.10;;;;;;;7.49;68.08;103280.31;5024299;28;20030;-85
2022/01/17 04:37:39;;;;;;;0.20;0.20;;;;;;;7.45;68.12;103274.03;5028739;28;20041;-85
2022/01/17 04:40:07;;;;;;;0.10;0.10;;;;;;;7.45;69.33;103279.31;5031151;28;20396;-84
2022/01/17 04:42:33;;;;;;;0.30;0.30;;;;;;;7.50;68.32;103271.56;5021582;28;20033;-85
2022/01/17 04:45:07;;;;;;;0.10;0.10;;;;;;;7.53;68.46;103266.41;5021930;28;20030;-87
2022/01/17 04:47:36;;;;;;;0.52;0.52;;;;;;;7.50;68.29;103269.84;5026802;28;20120;-83
2022/01/17 04:50:07;;;;;;;1.25;0.50;;;;;;;7.51;68.37;103268.97;5027144;28;20032;-84
2022/01/17 04:52:35;;;;;;;0.17;0.17;;;;;;;7.47;68.92;103271.47;5024262;28;20169;-83
2022/01/17 04:55:04;;;;;;;0.10;0.10;;;;;;;7.49;67.81;103275.03;5029010;28;20026;-84
2022/01/17 04:57:30;;;;;;;0.13;0.13;;;;;;;7.42;68.62;103269.56;5022738;28;20477;-85
2022/01/17 04:59:57;;;;;;;0.10;0.10;;;;;;;7.43;68.80;103276.63;5022447;28;20500;-85
2022/01/17 05:02:23;;;;;;;0.10;0.10;;;;;;;7.44;68.04;103278.44;5029836;28;20044;-85
2022/01/17 05:04:50;;;;;;;0.17;0.17;;;;;;;7.43;68.67;103276.63;5028082;28;20033;-85
2022/01/17 05:07:17;;;;;;;0.10;0.10;;;;;;;7.42;68.52;103280.13;5023679;28;20092;-84
2022/01/17 05:09:44;;;;;;;0.20;0.20;;;;;;;7.40;68.51;103278.28;5026551;28;20026;-84
2022/01/17 05:12:12;;;;;;;0.10;0.10;;;;;;;7.39;68.97;103280.03;5020774;28;21451;-84
2022/01/17 05:14:41;;;;;;;0.30;0.30;;;;;;;7.37;69.17;103275.56;5028225;28;20033;-84
2022/01/17 05:17:44;;;;;;;0.10;0.10;;;;;;;7.33;69.80;103285.09;5029762;28;20022;-84
2022/01/17 05:19:57;;;;;;;0.10;0.10;;;;;;;7.34;69.59;103281.63;5026260;28;20034;-86
2022/01/17 05:22:26;;;;;;;0.10;0.10;;;;;;;7.39;69.34;103290.59;5028532;28;20034;-86
2022/01/17 05:24:53;;;;;;;0.10;0.10;;;;;;;7.34;68.86;103286.91;5021821;28;20052;-86
2022/01/17 05:27:19;;;;;;;0.10;0.10;;;;;;;7.35;70.20;103287.78;5028504;28;20053;-84
2022/01/17 05:29:47;;;;;;;0.40;0.40;;;;;;;7.34;69.87;103293.91;5025054;28;20112;-85
2022/01/17 05:32:13;;;;;;;0.10;0.10;;;;;;;7.39;69.05;103295.84;5031488;28;20045;-84
2022/01/17 05:34:41;;;;;;;0.10;0.10;;;;;;;7.40;69.98;103296.75;5029841;28;20021;-84
2022/01/17 05:37:09;;;;;;;0.30;0.30;;;;;;;7.44;69.79;103299.53;5028313;28;20034;-85
2022/01/17 05:39:36;;;;;;;0.15;0.15;;;;;;;7.50;69.83;103292.66;5021100;28;20112;-84
2022/01/17 05:42:04;;;;;;;0.10;0.10;;;;;;;7.47;69.97;103284.66;5022034;28;20028;-84
2022/01/17 05:44:31;;;;;;;0.00;0.00;;;;;;;7.52;69.54;103288.34;5027049;28;20484;-85
2022/01/17 05:46:57;;;;;;;0.10;0.10;;;;;;;7.54;69.59;103273.44;5031645;28;20044;-85
2022/01/17 05:49:23;;;;;;;0.43;0.43;;;;;;;7.54;70.18;103276.06;5027623;28;20026;-84
2022/01/17 05:51:50;;;;;;;0.10;0.10;;;;;;;7.60;69.90;103271.00;5032469;28;20037;-84
2022/01/17 05:54:16;;;;;;;0.10;0.10;;;;;;;7.68;69.67;103272.16;5029793;28;20362;-84
2022/01/17 05:56:43;;;;;;;0.22;0.22;;;;;;;7.65;69.46;103272.06;5018609;28;20048;-84
2022/01/17 05:59:09;;;;;;;0.10;0.10;;;;;;;7.69;69.59;103289.78;5018596;28;20030;-84
2022/01/17 06:01:39;;;;;;;0.10;0.10;;;;;;;7.67;69.84;103293.22;5020624;28;20385;-83
2022/01/17 06:04:06;;;;;;;0.40;0.40;;;;;;;7.71;68.89;103296.00;5023299;28;20026;-84
2022/01/17 06:06:32;;;;;;;0.20;0.20;;;;;;;7.73;69.05;103289.00;5024286;28;20041;-83
2022/01/17 06:08:58;;;;;;;0.10;0.10;;;;;;;7.72;69.86;103297.78;5025356;28;20135;-85
2022/01/17 06:11:24;;;;;;;0.10;0.10;;;;;;;7.77;69.51;103304.09;5021468;28;20075;-85
2022/01/17 06:13:50;;;;;;;0.10;0.10;;;;;;;7.76;69.90;103307.59;5023463;28;20029;-84
2022/01/17 06:16:16;;;;;;;0.10;0.10;;;;;;;7.77;70.20;103313.75;5020426;28;20030;-84
2022/01/17 06:18:43;;;;;;;1.55;0.85;;;;;;;7.76;69.78;103312.88;5024622;28;20037;-84
2022/01/17 06:21:09;;;;;;;1.00;1.00;;;;;;;7.75;69.82;103316.34;5025787;28;20037;-84
2022/01/17 06:23:35;;;;;;;0.10;0.10;;;;;;;7.72;69.86;103318.88;5027872;28;20033;-83
2022/01/17 06:26:01;;;;;;;0.30;0.30;;;;;;;7.73;70.18;103327.72;5025204;28;20457;-84
2022/01/17 06:28:27;;;;;;;0.10;0.10;;;;;;;7.76;69.59;103334.00;5021361;28;20385;-84
2022/01/17 06:30:54;;;;;;;0.10;0.10;;;;;;;7.72;69.73;103326.78;5027675;28;20033;-85
2022/01/17 06:33:20;;;;;;;0.10;0.10;;;;;;;7.75;69.07;103324.28;5028683;28;20036;-83
2022/01/17 06:35:46;;;;;;;0.13;0.13;;;;;;;7.68;69.49;103318.75;5026721;28;20397;-84
2022/01/17 06:38:12;;;;;;;0.10;0.10;;;;;;;7.68;69.42;103309.09;5024250;28;20141;-84
2022/01/17 06:40:38;;;;;;;0.52;0.52;;;;;;;7.66;69.08;103316.03;5027099;28;20128;-84
2022/01/17 06:43:08;;;;;;;0.10;0.10;;;;;;;7.61;69.69;103322.91;5025367;28;20034;-83
2022/01/17 06:45:35;;;;;;;0.73;0.73;;;;;;;7.57;70.21;103321.94;5022455;28;20611;-83
2022/01/17 06:48:02;;;;;;;0.10;0.10;;;;;;;7.63;69.40;103310.69;5030087;28;20037;-84
2022/01/17 06:50:28;;;;;;;0.68;0.68;;;;;;;7.64;69.73;103323.03;5027674;28;20056;-83
2022/01/17 06:52:55;;;;;;;0.20;0.20;;;;;;;7.64;69.74;103327.41;5024117;28;20037;-83
2022/01/17 06:55:21;;;;;;;0.10;0.10;;;;;;;7.64;69.78;103333.59;5024617;28;20026;-84
2022/01/17 06:57:47;;;;;;;0.08;0.08;;;;;;;7.66;70.34;103355.63;5030252;28;20029;-84
2022/01/17 07:00:14;;;;;;;0.77;0.77;;;;;;;7.70;70.12;103360.19;5015366;28;20161;-84
2022/01/17 07:02:40;;;;;;;0.17;0.17;;;;;;;7.65;70.28;103369.69;5026000;28;20036;-84
2022/01/17 07:05:06;;;;;;;0.10;0.10;;;;;;;7.69;69.79;103379.50;5023522;28;20083;-83
2022/01/17 07:07:32;;;;;;;0.90;0.90;;;;;;;7.68;70.44;103393.53;5031432;28;20042;-85
2022/01/17 07:09:59;;;;;;;0.20;0.20;;;;;;;7.72;70.33;103391.91;5022905;28;20029;-84
2022/01/17 07:12:25;;;;;;;0.15;0.15;;;;;;;7.72;70.06;103378.69;5020632;28;20053;-85
2022/01/17 07:14:51;;;;;;;0.30;0.30;;;;;;;7.73;70.13;103360.25;5022660;28;20366;-84
2022/01/17 07:17:19;;;;;;;0.20;0.20;;;;;;;7.73;69.80;103348.81;5029859;28;20029;-84
2022/01/17 07:19:45;;;;;;;0.30;0.30;;;;;;;7.77;69.59;103351.59;5016361;28;20042;-86
2022/01/17 07:22:14;;;;;;;1.38;0.63;;;;;;;7.77;69.58;103341.03;5023601;28;20484;-85
2022/01/17 07:24:42;;;;;;;0.30;0.30;;;;;;;7.76;69.85;103346.28;5028674;28;20129;-85
2022/01/17 07:27:08;;;;;;;0.10;0.10;;;;;;;7.77;70.05;103356.88;5014337;28;20026;-85
2022/01/17 07:29:35;;;;;;;0.10;0.10;;;;;;;7.76;69.51;103365.66;5024918;28;20037;-84
2022/01/17 07:32:01;;;;;;;0.10;0.10;;;;;;;7.75;70.21;103374.41;5019523;28;20037;-85
2022/01/17 07:34:27;;;;;;;0.20;0.20;;;;;;;7.82;70.10;103380.78;5022061;28;20033;-86
2022/01/17 07:36:54;;;;;;;0.20;0.20;;;;;;;7.91;70.13;103396.00;5031828;28;20033;-86
2022/01/17 07:39:20;;;;;;;0.13;0.13;;;;;;;8.00;69.58;103405.97;5023593;28;20091;-86
2022/01/17 07:41:47;;;;;;;0.10;0.10;;;;;;;8.06;70.12;103403.53;5026253;28;20032;-86
2022/01/17 07:44:19;;;;;;;0.10;0.10;;;;;;;8.12;69.38;103414.28;5025689;28;20041;-86
2022/01/17 07:46:49;;;;;;;0.43;0.43;;;;;;;8.08;69.63;103400.09;5034505;28;20099;-86
2022/01/17 07:49:19;;;;;;;0.10;0.10;;;;;;;8.24;68.92;103411.16;5028015;28;20069;-85
2022/01/17 07:51:51;;;;;;;0.25;0.25;;;;;;;8.37;69.04;103407.13;5020910;28;20504;-86
2022/01/17 07:54:18;;;;;;;0.10;0.10;;;;;;;8.45;69.41;103407.34;5021115;28;20049;-87
2022/01/17 07:56:46;;;;;;;28.92;1.30;;;;;;;8.38;69.25;103415.09;5031535;28;20397;-87
2022/01/17 07:59:13;;;;;;;0.20;0.20;;;;;;;8.51;69.21;103399.66;5025077;28;20038;-87
2022/01/17 08:01:40;;;;;;;0.10;0.10;;;;;;;8.51;68.54;103416.41;5030566;28;20109;-87
2022/01/17 08:04:07;;;;;;;0.10;0.10;;;;;;;8.51;67.86;103416.41;5033011;28;20040;-87
2022/01/17 08:06:38;;;;;;;0.10;0.10;;;;;;;8.53;67.74;103421.75;5029739;28;20057;-85
2022/01/17 08:09:10;;;;;;;0.10;0.10;;;;;;;8.67;67.99;103417.78;5028349;28;20058;-86
2022/01/17 08:11:36;;;;;;;0.20;0.20;;;;;;;8.66;68.02;103415.97;5031915;28;20030;-87
2022/01/17 08:14:02;;;;;;;0.10;0.10;;;;;;;8.75;68.02;103415.34;5032764;28;20053;-85
2022/01/17 08:16:29;;;;;;;0.47;0.47;;;;;;;8.79;67.85;103424.25;5028836;28;20034;-85
2022/01/17 08:18:55;;;;;;;0.15;0.15;;;;;;;8.86;67.60;103427.13;5022496;28;20396;-85
2022/01/17 08:21:22;;;;;;;0.20;0.20;;;;;;;8.89;67.63;103436.88;5031703;28;20032;-84
2022/01/17 08:23:49;;;;;;;0.10;0.10;;;;;;;8.82;67.05;103434.91;5028952;28;20065;-86
2022/01/17 08:26:17;;;;;;;0.10;0.10;;;;;;;8.84;67.42;103428.81;5030582;28;20116;-85
2022/01/17 08:28:43;;;;;;;0.05;0.05;;;;;;;8.89;67.53;103429.84;5029944;28;20026;-86
2022/01/17 08:31:09;;;;;;;0.30;0.30;;;;;;;8.92;67.45;103425.50;5024813;28;20041;-85
2022/01/17 08:33:36;;;;;;;0.20;0.20;;;;;;;8.97;67.63;103422.16;5030177;28;20077;-87
2022/01/17 08:36:02;;;;;;;0.20;0.20;;;;;;;8.97;67.40;103438.00;5030284;28;20104;-86
2022/01/17 08:38:30;;;;;;;0.13;0.13;;;;;;;8.99;67.42;103430.13;5028248;28;20061;-85
2022/01/17 08:40:58;;;;;;;0.10;0.10;;;;;;;9.02;67.15;103425.81;5028442;28;20061;-85
2022/01/17 08:43:25;;;;;;;0.10;0.10;;;;;;;9.05;66.78;103423.25;5025976;28;20026;-87
2022/01/17 08:45:53;;;;;;;0.20;0.20;;;;;;;9.13;67.02;103414.63;5030321;28;20033;-86
2022/01/17 08:48:19;;;;;;;0.10;0.10;;;;;;;9.17;66.70;103411.19;5029555;28;20030;-86
2022/01/17 08:50:47;;;;;;;0.10;0.10;;;;;;;9.21;67.08;103415.75;5027398;28;20373;-86
2022/01/17 08:53:15;;;;;;;0.15;0.15;;;;;;;9.20;67.48;103416.59;5026049;28;20080;-85
2022/01/17 08:55:44;;;;;;;0.10;0.10;;;;;;;9.23;66.98;103425.50;5027783;28;20120;-83
2022/01/17 08:58:11;;;;;;;0.20;0.20;;;;;;;9.21;67.24;103428.97;5027689;28;20087;-85
2022/01/17 09:00:38;;;;;;;1.75;1.65;;;;;;;9.26;66.64;103429.06;5028776;28;20484;-85
2022/01/17 09:03:04;;;;;;;0.10;0.10;;;;;;;9.27;66.80;103429.13;5026165;28;20367;-82
2022/01/17 09:05:33;;;;;;;0.63;0.63;;;;;;;9.39;67.02;103434.75;5023681;28;20033;-85
2022/01/17 09:07:59;;;;;;;0.10;0.10;;;;;;;9.41;66.86;103436.53;5027216;28;20107;-83
2022/01/17 09:10:27;;;;;;;0.10;0.10;;;;;;;9.45;66.83;103446.34;5032066;28;20559;-84
2022/01/17 09:12:53;;;;;;;1.65;1.30;;;;;;;9.49;66.58;103450.88;5029450;28;20025;-83
2022/01/17 09:15:20;;;;;;;0.10;0.10;;;;;;;9.53;66.50;103450.09;5030935;28;20026;-83
2022/01/17 09:17:46;;;;;;;0.30;0.30;;;;;;;9.49;66.60;103459.69;5028068;28;20048;-82
2022/01/17 09:20:13;;;;;;;0.10;0.10;;;;;;;9.57;66.11;103472.22;5030038;28;20168;-83
2022/01/17 09:23:05;;;;;;;1.45;1.40;;;;;;;9.63;66.41;103478.59;5036242;23;20482;-90
2022/01/17 09:25:32;;;;;;;0.93;0.93;;;;;;;9.63;66.49;103468.03;5023702;28;20034;-85
2022/01/17 09:28:05;;;;;;;0.10;0.10;;;;;;;9.67;66.13;103471.59;5029773;28;20037;-96
2022/01/17 09:30:32;;;;;;;2.83;2.58;;;;;;;9.60;66.42;103483.81;5013412;28;20085;-89
2022/01/17 09:32:58;;;;;;;0.10;0.10;;;;;;;9.77;66.23;103476.31;5022528;28;20479;-91
2022/01/17 09:35:25;;;;;;;0.93;0.90;;;;;;;9.81;66.10;103478.19;5028166;28;20030;-94
2022/01/17 09:37:52;;;;;;;0.10;0.10;;;;;;;9.87;65.68;103477.44;5021683;28;20548;-90
2022/01/17 09:40:20;;;;;;;0.10;0.10;;;;;;;9.95;65.74;103485.56;5018679;28;20309;-94
2022/01/17 09:42:48;;;;;;;0.20;0.20;;;;;;;9.95;65.65;103481.16;5025888;28;20029;-84
2022/01/17 09:45:18;;;;;;;0.10;0.10;;;;;;;9.98;65.26;103481.25;5014745;28;20095;-91
2022/01/17 09:47:46;;;;;;;0.38;0.38;;;;;;;10.06;65.53;103491.16;5024331;28;20106;-94
2022/01/17 09:50:19;;;;;;;0.10;0.10;;;;;;;10.02;66.01;103496.34;5027099;28;20025;-95
2022/01/17 09:52:52;;;;;;;0.10;0.10;;;;;;;9.99;65.71;103498.03;5027089;28;20065;-96
2022/01/17 09:55:23;;;;;;;0.30;0.30;;;;;;;10.12;65.55;103493.91;5022045;28;20032;-91
2022/01/17 10:00:44;;;;;;;0.10;0.10;;;;;;;10.18;65.36;103507.31;5054785;28;20472;-93
2022/01/17 10:03:13;;;;;;;1.75;1.65;;;;;;;10.20;65.38;103508.25;5038683;28;20092;-91
2022/01/17 10:05:40;;;;;;;0.20;0.20;;;;;;;10.26;65.23;103519.00;5036893;28;20033;-88
2022/01/17 10:08:09;;;;;;;0.10;0.10;;;;;;;10.36;64.94;103515.75;5036324;28;20044;-94
2022/01/17 10:13:24;;;;;;;0.10;0.10;;;;;;;10.44;64.49;103525.66;5032492;28;20429;-89
2022/01/17 10:16:19;;;;;;;0.20;0.20;;;;;;;10.50;64.55;103513.44;5010168;28;20029;-92
2022/01/17 10:27:24;;;;;;;0.10;0.10;;;;;;;10.55;64.50;103521.50;5056972;28;20503;-91
2022/01/17 10:35:59;;;;;;;0.10;0.10;;;;;;;10.71;64.18;103537.75;5042817;28;20102;-92
2022/01/17 10:38:27;;;;;;;0.10;0.10;;;;;;;10.82;63.78;103546.84;5036453;28;20465;-92
2022/01/17 10:41:01;;;;;;;0.10;0.10;;;;;;;10.81;63.86;103545.06;5039830;28;20052;-87
2022/01/17 10:43:35;;;;;;;0.10;0.10;;;;;;;10.77;63.71;103546.75;5040618;28;20112;-85
2022/01/17 10:46:05;;;;;;;0.10;0.10;;;;;;;10.76;63.99;103533.47;5042695;28;20033;-93
2022/01/17 10:48:35;;;;;;;0.10;0.10;;;;;;;10.82;63.74;103536.25;5041869;28;20056;-89
2022/01/17 10:51:03;;;;;;;0.10;0.10;;;;;;;10.83;63.34;103538.03;5037257;28;20025;-89
2022/01/17 10:53:30;;;;;;;4.10;2.92;;;;;;;10.93;63.67;103542.69;5036653;28;20488;-93
2022/01/17 10:55:58;;;;;;;0.10;0.10;;;;;;;10.97;62.95;103536.56;5039218;28;20044;-92
2022/01/17 10:58:29;;;;;;;0.10;0.10;;;;;;;10.97;63.30;103554.25;5042685;28;20045;-86
2022/01/17 11:00:59;;;;;;;0.10;0.10;;;;;;;10.96;62.95;103555.13;5044598;28;20032;-91
2022/01/17 11:03:29;;;;;;;0.10;0.10;;;;;;;11.04;63.06;103553.53;5055027;28;20036;-91
2022/01/17 11:05:57;;;;;;;0.10;0.10;;;;;;;11.00;62.93;103552.56;5042757;28;20072;-92
2022/01/17 11:08:27;;;;;;;0.10;0.10;;;;;;;11.12;62.44;103557.22;5034627;28;20026;-90
2022/01/17 11:10:56;;;;;;;5.53;3.60;;;;;;;11.04;62.75;103563.22;5038775;28;20052;-87
2022/01/17 11:13:27;;;;;;;0.10;0.10;;;;;;;11.10;62.50;103573.97;5037372;28;20034;-84
2022/01/17 11:15:56;;;;;;;0.25;0.25;;;;;;;11.04;62.74;103576.50;5033834;28;20041;-90
2022/01/17 11:18:26;;;;;;;0.08;0.08;;;;;;;11.15;62.74;103585.59;5037771;28;20124;-89
2022/01/17 11:20:58;;;;;;;0.40;0.40;;;;;;;11.21;62.94;103588.38;5033969;28;20045;-92
2022/01/17 11:23:25;;;;;;;0.30;0.30;;;;;;;11.12;62.77;103598.81;5038758;28;20053;-90
2022/01/17 11:25:55;;;;;;;0.10;0.10;;;;;;;11.04;62.42;103573.84;5037859;28;20045;-90
2022/01/17 11:28:25;;;;;;;0.05;0.05;;;;;;;11.14;62.41;103571.44;5033346;28;20124;-91
2022/01/17 11:30:54;;;;;;;0.20;0.20;;;;;;;11.12;62.29;103573.16;5037127;28;20039;-92
2022/01/17 11:33:21;;;;;;;0.10;0.10;;;;;;;11.16;62.64;103579.41;5036173;28;20117;-92
2022/01/17 11:35:52;;;;;;;0.10;0.10;;;;;;;11.19;62.23;103579.50;5041015;28;20068;-94
2022/01/17 11:38:23;;;;;;;1.02;0.90;;;;;;;11.16;61.86;103574.13;5025040;28;20037;-92
2022/01/17 11:40:50;;;;;;;0.10;0.10;;;;;;;11.11;62.44;103578.44;5023345;28;20057;-92
2022/01/17 11:45:56;;;;;;;0.10;0.10;;;;;;;11.16;62.60;103571.47;5077519;27;20442;-90
2022/01/17 11:48:27;;;;;;;0.10;0.10;;;;;;;11.15;62.04;103574.97;5058671;28;20055;-90
2022/01/17 11:50:56;;;;;;;0.22;0.22;;;;;;;11.15;62.59;103573.22;5061058;28;20033;-96
2022/01/17 11:56:07;;;;;;;0.10;0.10;;;;;;;11.37;62.47;103591.38;5077918;28;20576;-88
2022/01/17 11:58:49;;;;;;;0.10;0.10;;;;;;;11.38;61.72;103611.75;5058200;28;20506;-85
2022/01/17 12:01:20;;;;;;;1.45;1.45;;;;;;;11.41;62.06;103627.72;5061473;28;20032;-84
2022/01/17 12:03:56;;;;;;;0.30;0.30;;;;;;;11.42;61.80;103614.47;5055695;28;20025;-84
2022/01/17 12:06:41;;;;;;;0.10;0.10;;;;;;;11.39;62.06;103618.81;5051048;28;20045;-85
2022/01/17 12:09:29;;;;;;;0.10;0.10;;;;;;;11.53;61.25;103622.66;5050798;28;20392;-84
2022/01/17 12:12:15;;;;;;;0.20;0.20;;;;;;;11.54;61.68;103611.19;5056358;28;20033;-85
2022/01/17 12:14:53;;;;;;;1.00;1.00;;;;;;;11.39;61.59;103609.13;5050888;28;20028;-82